createdAt,value
2018-06-09T00:00:57.565Z,94920.09
2018-06-09T00:03:24.222Z,94919.55
2018-06-09T00:05:50.946Z,94914.53
2018-06-09T00:08:17.697Z,94907.20
2018-06-09T00:10:44.378Z,94910.56
2018-06-09T00:13:17.875Z,94907.54
2018-06-09T00:15:44.553Z,94902.20
2018-06-09T00:18:11.250Z,94900.27
2018-06-09T00:20:37.937Z,94898.30
2018-06-09T00:23:04.620Z,94904.98
2018-06-09T00:25:31.313Z,94901.45
2018-06-09T00:27:57.999Z,94894.50
2018-06-09T00:30:24.683Z,94898.31
2018-06-09T00:32:51.383Z,94889.23
2018-06-09T00:35:18.114Z,94885.20
2018-06-09T00:37:44.805Z,94885.26
2018-06-09T00:40:11.505Z,94892.48
2018-06-09T00:42:38.229Z,94888.95
2018-06-09T00:45:04.952Z,94890.91
2018-06-09T00:47:35.008Z,94887.81
2018-06-09T00:50:01.731Z,94883.75
2018-06-09T00:52:28.423Z,94888.00
2018-06-09T00:54:55.115Z,94883.13
2018-06-09T00:57:21.792Z,94879.45
2018-06-09T00:59:48.491Z,94876.04
2018-06-09T01:02:15.178Z,94874.26
2018-06-09T01:04:41.867Z,94874.26
2018-06-09T01:07:09.635Z,94866.72
2018-06-09T01:09:35.357Z,94868.87
2018-06-09T01:12:02.037Z,94860.11
2018-06-09T01:14:28.749Z,94855.36
2018-06-09T01:16:55.445Z,94858.34
2018-06-09T01:19:22.123Z,94853.33
2018-06-09T01:21:51.516Z,94853.70
2018-06-09T01:24:18.205Z,94853.70
2018-06-09T01:26:44.899Z,94851.41
2018-06-09T01:29:11.733Z,94846.48
2018-06-09T01:31:38.439Z,94844.17
2018-06-09T01:34:05.131Z,94831.41
2018-06-09T01:36:31.862Z,94831.38
2018-06-09T01:38:58.565Z,94836.62
2018-06-09T01:41:25.277Z,94836.50
2018-06-09T01:43:51.925Z,94835.19
2018-06-09T01:46:18.652Z,94835.28
2018-06-09T01:48:45.324Z,94826.52
2018-06-09T01:51:12.069Z,94826.14
2018-06-09T01:53:38.752Z,94820.69
2018-06-09T01:56:05.435Z,94825.17
2018-06-09T01:58:32.115Z,94826.94
2018-06-09T02:00:59.639Z,94832.00
2018-06-09T02:03:26.316Z,94830.61
2018-06-09T02:05:53.037Z,94818.78
2018-06-09T02:08:19.774Z,94816.11
2018-06-09T02:10:46.505Z,94815.84
2018-06-09T02:13:13.193Z,94810.52
2018-06-09T02:15:39.925Z,94814.81
2018-06-09T02:18:06.649Z,94818.30
2018-06-09T02:20:33.362Z,94810.59
2018-06-09T02:23:00.010Z,94812.75
2018-06-09T02:25:26.747Z,94808.11
2018-06-09T02:27:53.427Z,94806.16
2018-06-09T02:30:20.160Z,94804.36
2018-06-09T02:32:46.838Z,94808.31
2018-06-09T02:35:13.529Z,94809.81
2018-06-09T02:37:40.201Z,94809.62
2018-06-09T02:40:06.966Z,94803.23
2018-06-09T02:42:33.615Z,94802.67
2018-06-09T02:45:00.296Z,94804.58
2018-06-09T02:47:26.996Z,94805.95
2018-06-09T02:49:55.550Z,94804.29
2018-06-09T02:52:20.357Z,94806.21
2018-06-09T02:54:47.090Z,94800.73
2018-06-09T02:57:13.763Z,94795.19
2018-06-09T02:59:40.461Z,94803.20
2018-06-09T03:02:07.144Z,94791.40
2018-06-09T03:04:33.829Z,94787.31
2018-06-09T03:07:00.510Z,94781.79
2018-06-09T03:09:27.206Z,94782.58
2018-06-09T03:11:53.887Z,94785.97
2018-06-09T03:14:20.561Z,94782.80
2018-06-09T03:16:47.259Z,94776.55
2018-06-09T03:19:13.960Z,94771.86
2018-06-09T03:21:40.676Z,94771.06
2018-06-09T03:24:07.326Z,94766.31
2018-06-09T03:26:34.021Z,94767.20
2018-06-09T03:29:00.704Z,94764.06
2018-06-09T03:31:27.439Z,94760.65
2018-06-09T03:33:54.147Z,94770.77
2018-06-09T03:36:20.855Z,94770.36
2018-06-09T03:38:47.544Z,94776.52
2018-06-09T03:41:14.232Z,94774.58
2018-06-09T03:43:40.919Z,94777.66
2018-06-09T03:46:07.600Z,94789.06
2018-06-09T03:48:34.284Z,94782.47
2018-06-09T03:51:00.975Z,94786.13
2018-06-09T03:53:27.772Z,94787.19
2018-06-09T03:55:54.429Z,94789.27
2018-06-09T03:58:21.120Z,94791.67
2018-06-09T04:00:47.892Z,94791.92
2018-06-09T04:03:14.575Z,94793.73
2018-06-09T04:05:41.314Z,94793.03
2018-06-09T04:08:08.183Z,94787.08
2018-06-09T04:10:34.875Z,94794.13
2018-06-09T04:13:01.559Z,94793.36
2018-06-09T04:15:28.381Z,94792.23
2018-06-09T04:17:55.103Z,94792.66
2018-06-09T04:20:21.784Z,94801.16
2018-06-09T04:22:48.556Z,94803.16
2018-06-09T04:25:15.315Z,94810.88
2018-06-09T04:27:41.984Z,94806.58
2018-06-09T04:30:08.725Z,94797.16
2018-06-09T04:32:35.457Z,94807.67
2018-06-09T04:35:02.142Z,94813.06
2018-06-09T04:37:28.977Z,94816.91
2018-06-09T04:39:55.692Z,94821.27
2018-06-09T04:42:22.328Z,94818.03
2018-06-09T04:44:49.053Z,94824.66
2018-06-09T04:47:15.693Z,94820.63
2018-06-09T04:49:42.384Z,94823.77
2018-06-09T04:52:09.135Z,94818.82
2018-06-09T04:54:35.752Z,94826.28
2018-06-09T04:57:02.445Z,94822.97
2018-06-09T04:59:29.133Z,94827.41
2018-06-09T05:01:55.829Z,94822.72
2018-06-09T05:04:22.517Z,94826.55
2018-06-09T05:06:49.202Z,94821.02
2018-06-09T05:09:15.932Z,94820.72
2018-06-09T05:11:42.612Z,94821.55
2018-06-09T05:14:09.290Z,94821.05
2018-06-09T05:16:36.062Z,94826.81
2018-06-09T05:19:02.715Z,94821.20
2018-06-09T05:21:29.388Z,94818.91
2018-06-09T05:23:56.110Z,94819.84
2018-06-09T05:26:22.802Z,94822.92
2018-06-09T05:28:49.485Z,94822.39
2018-06-09T05:31:16.169Z,94827.14
2018-06-09T05:33:42.892Z,94819.25
2018-06-09T05:36:09.605Z,94816.69
2018-06-09T05:38:36.297Z,94814.16
2018-06-09T05:41:03.019Z,94812.88
2018-06-09T05:43:29.681Z,94815.36
2018-06-09T05:45:56.359Z,94816.05
2018-06-09T05:48:23.046Z,94819.53
2018-06-09T05:50:49.829Z,94817.39
2018-06-09T05:53:16.496Z,94818.30
2018-06-09T05:55:43.181Z,94816.14
2018-06-09T05:58:09.900Z,94808.52
2018-06-09T06:00:36.580Z,94806.37
2018-06-09T06:03:03.330Z,94809.35
2018-06-09T06:05:29.966Z,94811.02
2018-06-09T06:07:56.731Z,94797.59
2018-06-09T06:10:23.393Z,94797.74
2018-06-09T06:12:50.071Z,94808.17
2018-06-09T06:15:16.801Z,94804.98
2018-06-09T06:17:43.480Z,94804.14
2018-06-09T06:20:10.186Z,94799.81
2018-06-09T06:22:36.903Z,94798.75
2018-06-09T06:25:03.622Z,94792.76
2018-06-09T06:27:30.336Z,94798.26
2018-06-09T06:29:56.982Z,94792.50
2018-06-09T06:32:23.932Z,94788.19
2018-06-09T06:34:50.617Z,94780.31
2018-06-09T06:37:17.231Z,94774.73
2018-06-09T06:39:43.904Z,94778.36
2018-06-09T06:42:10.588Z,94778.28
2018-06-09T06:44:37.259Z,94772.06
2018-06-09T06:47:03.961Z,94764.37
2018-06-09T06:49:30.604Z,94769.52
2018-06-09T06:51:57.256Z,94765.26
2018-06-09T06:54:23.941Z,94754.75
2018-06-09T06:56:50.560Z,94755.72
2018-06-09T06:59:17.276Z,94753.94
2018-06-09T07:01:43.973Z,94749.47
2018-06-09T07:04:10.618Z,94743.11
2018-06-09T07:06:37.276Z,94736.59
2018-06-09T07:09:03.936Z,94731.76
2018-06-09T07:11:30.595Z,94735.78
2018-06-09T07:13:57.296Z,94729.80
2018-06-09T07:16:23.970Z,94726.19
2018-06-09T07:18:50.634Z,94730.56
2018-06-09T07:21:17.282Z,94723.58
2018-06-09T07:23:43.988Z,94717.64
2018-06-09T07:26:10.593Z,94720.41
2018-06-09T07:28:37.253Z,94710.95
2018-06-09T07:31:05.322Z,94711.36
2018-06-09T07:33:30.679Z,94713.11
2018-06-09T07:35:57.328Z,94706.17
2018-06-09T07:38:24.013Z,94713.16
2018-06-09T07:40:50.649Z,94710.66
2018-06-09T07:43:17.313Z,94704.89
2018-06-09T07:45:44.005Z,94711.30
2018-06-09T07:48:10.649Z,94703.41
2018-06-09T07:50:37.340Z,94702.23
2018-06-09T07:53:03.956Z,94697.48
2018-06-09T07:55:30.693Z,94702.37
2018-06-09T07:57:57.397Z,94701.20
2018-06-09T08:00:24.027Z,94695.81
2018-06-09T08:02:51.075Z,94691.42
2018-06-09T08:05:17.755Z,94694.55
2018-06-09T08:07:44.385Z,94694.93
2018-06-09T08:10:11.083Z,94695.02
2018-06-09T08:12:37.779Z,94689.98
2018-06-09T08:15:05.564Z,94690.02
2018-06-09T08:17:32.221Z,94690.73
2018-06-09T08:19:58.867Z,94676.59
2018-06-09T08:22:25.607Z,94671.03
2018-06-09T08:24:52.215Z,94674.05
2018-06-09T08:27:18.907Z,94673.03
2018-06-09T08:29:45.572Z,94675.45
2018-06-09T08:32:12.318Z,94670.99
2018-06-09T08:34:38.928Z,94669.59
2018-06-09T08:37:05.619Z,94672.41
2018-06-09T08:39:32.273Z,94669.78
2018-06-09T08:41:58.944Z,94666.16
2018-06-09T08:44:25.592Z,94666.33
2018-06-09T08:46:52.273Z,94661.70
2018-06-09T08:49:18.887Z,94661.20
2018-06-09T08:51:45.623Z,94673.20
2018-06-09T08:54:12.252Z,94665.87
2018-06-09T08:56:38.990Z,94671.34
2018-06-09T08:59:05.636Z,94668.39
2018-06-09T09:01:32.254Z,94662.87
2018-06-09T09:03:58.912Z,94662.24
2018-06-09T09:06:25.600Z,94660.83
2018-06-09T09:08:52.288Z,94657.59
2018-06-09T09:11:18.951Z,94663.91
2018-06-09T09:13:45.660Z,94659.34
2018-06-09T09:16:12.310Z,94656.66
2018-06-09T09:18:38.970Z,94650.67
2018-06-09T09:21:05.653Z,94650.42
2018-06-09T09:23:32.301Z,94644.36
2018-06-09T09:25:58.960Z,94642.16
2018-06-09T09:28:25.622Z,94643.72
2018-06-09T09:30:52.266Z,94643.45
2018-06-09T09:33:18.968Z,94642.52
2018-06-09T09:35:45.650Z,94633.56
2018-06-09T09:38:12.272Z,94634.77
2018-06-09T09:40:38.989Z,94634.87
2018-06-09T09:43:05.622Z,94633.22
2018-06-09T09:45:32.317Z,94633.40
2018-06-09T09:47:59.031Z,94625.78
2018-06-09T09:50:25.659Z,94630.95
2018-06-09T09:52:52.312Z,94632.53
2018-06-09T09:55:19.042Z,94629.66
2018-06-09T09:57:45.724Z,94635.59
2018-06-09T10:00:12.367Z,94624.97
2018-06-09T10:02:39.056Z,94616.96
2018-06-09T10:05:05.679Z,94609.84
2018-06-09T10:07:32.373Z,94605.73
2018-06-09T10:09:59.019Z,94594.51
2018-06-09T10:12:25.708Z,94597.59
2018-06-09T10:14:52.310Z,94596.28
2018-06-09T10:17:19.027Z,94598.63
2018-06-09T10:19:45.677Z,94596.00
2018-06-09T10:22:12.363Z,94591.73
2018-06-09T10:24:39.016Z,94592.78
2018-06-09T10:27:05.718Z,94589.23
2018-06-09T10:29:32.338Z,94585.80
2018-06-09T10:31:58.987Z,94584.48
2018-06-09T10:34:25.664Z,94591.75
2018-06-09T10:36:52.304Z,94582.18
2018-06-09T10:39:18.970Z,94580.89
2018-06-09T10:41:45.631Z,94586.83
2018-06-09T10:44:12.358Z,94568.41
2018-06-09T10:46:39.028Z,94565.42
2018-06-09T10:49:05.668Z,94563.13
2018-06-09T10:51:32.406Z,94558.47
2018-06-09T10:53:59.065Z,94555.33
2018-06-09T10:56:25.712Z,94559.03
2018-06-09T10:58:52.419Z,94550.30
2018-06-09T11:01:19.092Z,94549.66
2018-06-09T11:03:45.707Z,94543.23
2018-06-09T11:06:12.396Z,94536.36
2018-06-09T11:08:39.055Z,94537.31
2018-06-09T11:11:05.710Z,94529.48
2018-06-09T11:13:32.353Z,94536.63
2018-06-09T11:15:59.009Z,94534.96
2018-06-09T11:18:25.708Z,94532.19
2018-06-09T11:20:52.343Z,94534.97
2018-06-09T11:23:19.052Z,94534.69
2018-06-09T11:25:45.770Z,94533.89
2018-06-09T11:28:12.441Z,94528.15
2018-06-09T11:30:39.079Z,94532.02
2018-06-09T11:33:05.736Z,94521.95
2018-06-09T11:35:32.469Z,94532.56
2018-06-09T11:37:59.159Z,94539.76
2018-06-09T11:40:25.858Z,94544.48
2018-06-09T11:42:52.483Z,94533.33
2018-06-09T11:45:19.215Z,94524.42
2018-06-09T11:47:45.902Z,94520.77
2018-06-09T11:50:12.596Z,94520.31
2018-06-09T11:52:39.241Z,94521.52
2018-06-09T11:55:05.998Z,94518.84
2018-06-09T11:57:32.650Z,94529.97
2018-06-09T11:59:59.309Z,94526.14
2018-06-09T12:02:26.018Z,94523.28
2018-06-09T12:04:52.711Z,94520.30
2018-06-09T12:07:19.371Z,94510.23
2018-06-09T12:09:46.015Z,94508.94
2018-06-09T12:12:12.726Z,94495.48
2018-06-09T12:14:39.413Z,94493.88
2018-06-09T12:17:06.159Z,94501.12
2018-06-09T12:19:32.816Z,94516.25
2018-06-09T12:21:59.541Z,94539.28
2018-06-09T12:24:26.204Z,94552.45
2018-06-09T12:26:52.931Z,94558.11
2018-06-09T12:29:19.602Z,94569.90
2018-06-09T12:31:46.245Z,94547.69
2018-06-09T12:34:12.906Z,94537.45
2018-06-09T12:36:39.563Z,94535.69
2018-06-09T12:39:06.262Z,94524.67
2018-06-09T12:41:32.919Z,94519.13
2018-06-09T12:43:59.645Z,94516.30
2018-06-09T12:46:26.274Z,94506.45
2018-06-09T12:48:52.981Z,94499.25
2018-06-09T12:51:19.631Z,94509.41
2018-06-09T12:53:46.268Z,94511.64
2018-06-09T12:56:12.929Z,94505.22
2018-06-09T12:58:39.627Z,94516.62
2018-06-09T13:01:06.263Z,94509.59
2018-06-09T13:03:32.926Z,94474.42
2018-06-09T13:05:59.627Z,94451.79
2018-06-09T13:08:26.287Z,94455.55
2018-06-09T13:10:52.934Z,94462.78
2018-06-09T13:13:19.608Z,94465.57
2018-06-09T13:15:46.253Z,94475.70
2018-06-09T13:18:12.984Z,94466.48
2018-06-09T13:20:39.647Z,94453.72
2018-06-09T13:23:06.295Z,94441.31
2018-06-09T13:25:32.949Z,94432.61
2018-06-09T13:27:59.646Z,94433.25
2018-06-09T13:30:26.387Z,94432.02
2018-06-09T13:32:53.084Z,94431.02
2018-06-09T13:35:19.791Z,94430.11
2018-06-09T13:37:46.424Z,94424.50
2018-06-09T13:40:13.233Z,94418.62
2018-06-09T13:42:39.739Z,94418.94
2018-06-09T13:45:06.423Z,94409.70
2018-06-09T13:47:33.063Z,94413.05
2018-06-09T13:49:59.725Z,94405.36
2018-06-09T13:52:26.379Z,94404.98
2018-06-09T13:54:53.048Z,94399.90
2018-06-09T13:57:19.745Z,94380.84
2018-06-09T13:59:46.389Z,94370.45
2018-06-09T14:02:13.077Z,94372.78
2018-06-09T14:04:39.727Z,94371.39
2018-06-09T14:07:06.418Z,94377.28
2018-06-09T14:09:33.064Z,94368.58
2018-06-09T14:11:59.770Z,94369.09
2018-06-09T14:14:26.417Z,94373.05
2018-06-09T14:16:53.105Z,94370.83
2018-06-09T14:19:19.749Z,94369.14
2018-06-09T14:21:46.443Z,94380.88
2018-06-09T14:24:13.128Z,94384.80
2018-06-09T14:26:39.800Z,94386.43
2018-06-09T14:29:06.458Z,94395.12
2018-06-09T14:31:33.136Z,94404.02
2018-06-09T14:33:59.789Z,94397.83
2018-06-09T14:36:26.467Z,94392.06
2018-06-09T14:38:53.149Z,94383.33
2018-06-09T14:41:19.767Z,94375.90
2018-06-09T14:43:46.423Z,94367.72
2018-06-09T14:46:13.105Z,94372.81
2018-06-09T14:48:39.784Z,94375.52
2018-06-09T14:51:06.396Z,94384.66
2018-06-09T14:53:33.095Z,94388.85
2018-06-09T14:55:59.755Z,94387.55
2018-06-09T14:58:26.486Z,94384.45
2018-06-09T15:00:53.131Z,94379.91
2018-06-09T15:03:19.739Z,94369.63
2018-06-09T15:05:46.448Z,94364.58
2018-06-09T15:08:13.121Z,94361.79
2018-06-09T15:10:39.738Z,94355.66
2018-06-09T15:13:06.473Z,94355.93
2018-06-09T15:15:33.166Z,94362.71
2018-06-09T15:17:59.775Z,94378.73
2018-06-09T15:20:26.470Z,94394.62
2018-06-09T15:22:53.178Z,94405.34
2018-06-09T15:25:19.859Z,94411.45
2018-06-09T15:27:46.509Z,94434.39
2018-06-09T15:30:13.147Z,94459.05
2018-06-09T15:32:39.810Z,94464.95
2018-06-09T15:35:06.510Z,94482.52
2018-06-09T15:37:33.155Z,94469.32
2018-06-09T15:39:59.777Z,94468.06
2018-06-09T15:42:26.434Z,94461.18
2018-06-09T15:44:53.125Z,94461.68
2018-06-09T15:47:19.771Z,94451.63
2018-06-09T15:49:46.392Z,94452.66
2018-06-09T15:52:13.077Z,94443.00
2018-06-09T15:54:39.697Z,94426.58
2018-06-09T15:57:06.348Z,94423.63
2018-06-09T15:59:33.113Z,94424.38
2018-06-09T16:01:59.743Z,94432.78
2018-06-09T16:04:26.395Z,94446.89
2018-06-09T16:06:53.059Z,94447.53
2018-06-09T16:09:19.703Z,94451.25
2018-06-09T16:11:46.355Z,94446.78
2018-06-09T16:14:13.038Z,94450.95
2018-06-09T16:16:39.653Z,94457.52
2018-06-09T16:19:06.307Z,94454.27
2018-06-09T16:21:32.964Z,94466.13
2018-06-09T16:23:59.614Z,94472.60
2018-06-09T16:26:26.274Z,94482.37
2018-06-09T16:28:52.939Z,94494.76
2018-06-09T16:31:19.623Z,94497.50
2018-06-09T16:33:46.244Z,94494.61
2018-06-09T16:36:12.895Z,94491.75
2018-06-09T16:38:39.558Z,94487.12
2018-06-09T16:41:06.195Z,94477.20
2018-06-09T16:43:32.859Z,94474.39
2018-06-09T16:45:59.504Z,94480.29
2018-06-09T16:48:26.166Z,94473.34
2018-06-09T16:50:52.835Z,94464.58
2018-06-09T16:53:19.480Z,94459.42
2018-06-09T16:55:46.219Z,94451.20
2018-06-09T16:58:12.992Z,94440.28
2018-06-09T17:00:39.617Z,94438.75
2018-06-09T17:03:06.268Z,94429.28
2018-06-09T17:05:32.923Z,94439.18
2018-06-09T17:07:59.613Z,94453.86
2018-06-09T17:10:26.249Z,94464.98
2018-06-09T17:12:52.889Z,94470.48
2018-06-09T17:15:19.531Z,94469.28
2018-06-09T17:17:46.181Z,94467.40
2018-06-09T17:20:12.839Z,94463.95
2018-06-09T17:22:39.558Z,94466.50
2018-06-09T17:25:06.147Z,94475.03
2018-06-09T17:27:32.791Z,94485.30
2018-06-09T17:29:59.454Z,94498.16
2018-06-09T17:32:26.136Z,94502.30
2018-06-09T17:34:52.792Z,94518.01
2018-06-09T17:37:19.474Z,94525.11
2018-06-09T17:39:46.079Z,94539.36
2018-06-09T17:42:12.760Z,94543.64
2018-06-09T17:44:39.388Z,94542.14
2018-06-09T17:47:06.063Z,94538.77
2018-06-09T17:49:32.685Z,94535.48
2018-06-09T17:51:59.427Z,94528.63
2018-06-09T17:54:26.083Z,94521.29
2018-06-09T17:56:52.705Z,94512.10
2018-06-09T17:59:19.375Z,94512.78
2018-06-09T18:01:46.014Z,94521.66
2018-06-09T18:04:12.659Z,94533.27
2018-06-09T18:06:39.318Z,94535.75
2018-06-09T18:09:05.976Z,94539.02
2018-06-09T18:11:32.661Z,94549.09
2018-06-09T18:13:59.282Z,94546.30
2018-06-09T18:16:25.968Z,94549.91
2018-06-09T18:18:52.622Z,94545.93
2018-06-09T18:21:19.278Z,94549.53
2018-06-09T18:23:45.896Z,94545.92
2018-06-09T18:26:12.562Z,94546.89
2018-06-09T18:28:39.294Z,94547.95
2018-06-09T18:31:05.955Z,94554.26
2018-06-09T18:33:32.606Z,94560.61
2018-06-09T18:35:59.249Z,94551.09
2018-06-09T18:38:25.916Z,94547.16
2018-06-09T18:40:52.563Z,94542.25
2018-06-09T18:43:19.208Z,94543.91
2018-06-09T18:45:45.897Z,94551.54
2018-06-09T18:48:12.545Z,94557.52
2018-06-09T18:50:39.179Z,94576.38
2018-06-09T18:53:05.819Z,94585.24
2018-06-09T18:55:32.510Z,94583.44
2018-06-09T18:57:59.204Z,94575.20
2018-06-09T19:00:25.819Z,94578.00
2018-06-09T19:02:52.479Z,94569.55
2018-06-09T19:05:22.275Z,94567.02
2018-06-09T19:07:48.944Z,94554.02
2018-06-09T19:10:15.596Z,94547.30
2018-06-09T19:12:42.281Z,94547.38
2018-06-09T19:15:08.895Z,94557.28
2018-06-09T19:17:35.554Z,94552.71
2018-06-09T19:20:02.279Z,94572.42
2018-06-09T19:22:28.904Z,94575.84
2018-06-09T19:24:55.552Z,94581.72
2018-06-09T19:27:22.236Z,94581.09
2018-06-09T19:29:48.931Z,94581.80
2018-06-09T19:32:15.582Z,94588.23
2018-06-09T19:34:42.224Z,94597.72
2018-06-09T19:37:08.958Z,94601.25
2018-06-09T19:39:35.617Z,94609.60
2018-06-09T19:42:02.232Z,94611.90
2018-06-09T19:44:28.925Z,94609.00
2018-06-09T19:46:55.641Z,94612.46
2018-06-09T19:49:22.263Z,94609.83
2018-06-09T19:51:48.933Z,94621.64
2018-06-09T19:54:15.587Z,94616.94
2018-06-09T19:56:42.244Z,94625.36
2018-06-09T19:59:08.894Z,94623.94
2018-06-09T20:01:35.553Z,94632.77
2018-06-09T20:04:02.238Z,94637.92
2018-06-09T20:06:28.898Z,94641.23
2018-06-09T20:08:55.562Z,94649.14
2018-06-09T20:11:22.171Z,94648.77
2018-06-09T20:13:48.853Z,94648.50
2018-06-09T20:16:15.513Z,94647.44
2018-06-09T20:18:42.181Z,94648.83
2018-06-09T20:21:08.833Z,94657.06
2018-06-09T20:23:35.475Z,94660.31
2018-06-09T20:26:02.166Z,94664.03
2018-06-09T20:28:28.854Z,94658.58
2018-06-09T20:30:55.501Z,94657.16
2018-06-09T20:33:22.182Z,94648.41
2018-06-09T20:35:48.871Z,94642.59
2018-06-09T20:38:15.483Z,94635.56
2018-06-09T20:40:42.147Z,94619.56
2018-06-09T20:43:08.911Z,94617.30
2018-06-09T20:45:35.496Z,94626.22
2018-06-09T20:48:02.145Z,94629.38
2018-06-09T20:50:28.838Z,94625.28
2018-06-09T20:52:55.487Z,94627.99
2018-06-09T20:55:22.171Z,94615.46
2018-06-09T20:57:48.820Z,94608.58
2018-06-09T21:00:15.511Z,94606.20
2018-06-09T21:02:42.126Z,94604.25
2018-06-09T21:05:08.832Z,94608.34
2018-06-09T21:07:35.480Z,94617.61
2018-06-09T21:10:02.122Z,94622.34
2018-06-09T21:12:28.817Z,94617.27
2018-06-09T21:14:55.437Z,94613.70
2018-06-09T21:17:22.093Z,94616.52
2018-06-09T21:19:48.782Z,94617.98
2018-06-09T21:22:15.403Z,94604.70
2018-06-09T21:24:42.056Z,94606.69
2018-06-09T21:27:08.756Z,94606.88
2018-06-09T21:29:35.403Z,94605.00
2018-06-09T21:32:02.048Z,94599.77
2018-06-09T21:34:28.718Z,94602.94
2018-06-09T21:36:55.494Z,94611.39
2018-06-09T21:39:22.129Z,94612.89
2018-06-09T21:41:48.819Z,94602.14
2018-06-09T21:44:15.475Z,94591.27
2018-06-09T21:46:42.129Z,94581.30
2018-06-09T21:49:08.821Z,94579.75
2018-06-09T21:51:35.451Z,94580.58
2018-06-09T21:54:02.265Z,94589.28
2018-06-09T21:56:28.945Z,94585.80
2018-06-09T21:58:55.575Z,94581.73
2018-06-09T22:01:22.268Z,94586.23
2018-06-09T22:03:48.920Z,94581.44
2018-06-09T22:06:15.581Z,94578.73
2018-06-09T22:08:42.245Z,94576.75
2018-06-09T22:11:08.936Z,94573.81
2018-06-09T22:13:35.677Z,94573.28
2018-06-09T22:16:02.247Z,94558.60
2018-06-09T22:18:28.903Z,94554.50
2018-06-09T22:20:55.556Z,94548.56
2018-06-09T22:23:22.231Z,94544.57
2018-06-09T22:25:48.852Z,94537.13
2018-06-09T22:28:15.523Z,94533.17
2018-06-09T22:30:42.178Z,94528.97
2018-06-09T22:33:08.848Z,94524.59
2018-06-09T22:35:35.495Z,94537.53
2018-06-09T22:38:02.152Z,94539.00
2018-06-09T22:40:28.838Z,94537.23
2018-06-09T22:42:55.479Z,94537.20
2018-06-09T22:45:22.133Z,94537.69
2018-06-09T22:47:48.784Z,94537.13
2018-06-09T22:50:15.567Z,94536.37
2018-06-09T22:52:42.222Z,94540.12
2018-06-09T22:55:08.881Z,94542.32
2018-06-09T22:57:35.560Z,94544.34
2018-06-09T23:00:02.211Z,94548.75
2018-06-09T23:02:28.841Z,94550.89
2018-06-09T23:04:55.495Z,94556.32
2018-06-09T23:07:22.205Z,94552.73
2018-06-09T23:09:48.868Z,94569.79
2018-06-09T23:12:15.526Z,94563.88
2018-06-09T23:14:42.188Z,94564.14
2018-06-09T23:17:08.834Z,94553.75
2018-06-09T23:19:35.596Z,94550.25
2018-06-09T23:22:02.246Z,94544.44
2018-06-09T23:24:28.939Z,94542.32
2018-06-09T23:26:55.543Z,94550.30
2018-06-09T23:29:22.273Z,94548.16
2018-06-09T23:31:48.891Z,94543.16
2018-06-09T23:34:15.608Z,94551.13
2018-06-09T23:36:42.264Z,94556.99
2018-06-09T23:39:08.946Z,94560.98
2018-06-09T23:41:35.611Z,94549.09
2018-06-09T23:44:02.345Z,94547.59
2018-06-09T23:46:28.951Z,94552.03
2018-06-09T23:48:55.608Z,94554.52
2018-06-09T23:51:22.264Z,94548.45
2018-06-09T23:53:48.904Z,94552.78
2018-06-09T23:56:15.617Z,94547.86
2018-06-09T23:58:42.274Z,94546.80
